createdAt,value
2018-03-04T00:00:34.494Z,92021.91
2018-03-04T00:03:02.042Z,92009.47
2018-03-04T00:05:29.714Z,92012.30
2018-03-04T00:07:57.255Z,92003.61
2018-03-04T00:10:24.804Z,92001.60
2018-03-04T00:12:52.523Z,91992.42
2018-03-04T00:15:20.057Z,91994.93
2018-03-04T00:17:47.607Z,91996.23
2018-03-04T00:20:15.196Z,91988.48
2018-03-04T00:22:42.737Z,91981.83
2018-03-04T00:25:10.276Z,91976.34
2018-03-04T00:27:37.953Z,91984.20
2018-03-04T00:30:05.502Z,91978.58
2018-03-04T00:32:33.040Z,91976.42
2018-03-04T00:35:00.596Z,91972.59
2018-03-04T00:37:28.130Z,91974.59
2018-03-04T00:39:55.661Z,91966.00
2018-03-04T00:42:23.227Z,91974.77
2018-03-04T00:44:50.767Z,91973.28
2018-03-04T00:47:18.305Z,91980.45
2018-03-04T00:49:45.870Z,91971.87
2018-03-04T00:52:13.407Z,91961.24
2018-03-04T00:54:40.951Z,91957.64
2018-03-04T00:57:08.677Z,91966.02
2018-03-04T00:59:36.209Z,91959.23
2018-03-04T01:02:03.744Z,91951.87
2018-03-04T01:04:31.326Z,91954.49
2018-03-04T01:06:58.878Z,91947.41
2018-03-04T01:09:26.415Z,91948.64
2018-03-04T01:11:54.326Z,91958.31
2018-03-04T01:14:21.871Z,91963.53
2018-03-04T01:16:49.408Z,91961.59
2018-03-04T01:19:17.086Z,91958.56
2018-03-04T01:21:44.624Z,91970.59
2018-03-04T01:24:12.156Z,91954.88
2018-03-04T01:26:39.719Z,91971.03
2018-03-04T01:29:07.931Z,91956.67
2018-03-04T01:31:35.475Z,91964.63
2018-03-04T01:34:03.224Z,91957.28
2018-03-04T01:36:30.757Z,91973.78
2018-03-04T01:38:58.285Z,91958.97
2018-03-04T01:41:25.857Z,91968.45
2018-03-04T01:43:53.403Z,91958.03
2018-03-04T01:46:20.945Z,91979.48
2018-03-04T01:48:48.670Z,91972.53
2018-03-04T01:51:16.247Z,91980.39
2018-03-04T01:53:43.797Z,91977.98
2018-03-04T01:56:11.530Z,91982.11
2018-03-04T01:58:39.088Z,91975.95
2018-03-04T02:01:06.636Z,91988.77
2018-03-04T02:03:34.231Z,91996.63
2018-03-04T02:06:01.770Z,91994.55
2018-03-04T02:08:29.319Z,91995.30
2018-03-04T02:10:57.054Z,92000.34
2018-03-04T02:13:24.600Z,91995.72
2018-03-04T02:15:52.145Z,92016.08
2018-03-04T02:18:19.898Z,92010.86
2018-03-04T02:20:47.442Z,92015.86
2018-03-04T02:23:14.981Z,92001.84
2018-03-04T02:25:42.550Z,92015.83
2018-03-04T02:28:10.100Z,92010.45
2018-03-04T02:30:37.646Z,92015.35
2018-03-04T02:33:05.338Z,92031.28
2018-03-04T02:35:32.876Z,92019.67
2018-03-04T02:38:00.414Z,92027.02
2018-03-04T02:40:28.050Z,92025.77
2018-03-04T02:42:55.602Z,92018.84
2018-03-04T02:45:23.158Z,92018.09
2018-03-04T02:47:50.748Z,92024.38
2018-03-04T02:50:18.298Z,92025.20
2018-03-04T02:52:45.858Z,92021.93
2018-03-04T02:55:13.548Z,92035.91
2018-03-04T02:57:41.094Z,92030.70
2018-03-04T03:00:08.654Z,92035.23
2018-03-04T03:02:36.553Z,92035.26
2018-03-04T03:05:04.073Z,92041.80
2018-03-04T03:07:31.623Z,92041.78
2018-03-04T03:09:59.201Z,92040.97
2018-03-04T03:12:26.747Z,92046.39
2018-03-04T03:14:54.286Z,92042.26
2018-03-04T03:17:21.879Z,92040.19
2018-03-04T03:19:49.432Z,92041.04
2018-03-04T03:22:17.020Z,92038.08
2018-03-04T03:24:44.731Z,92044.24
2018-03-04T03:27:12.272Z,92048.30
2018-03-04T03:29:39.845Z,92042.86
2018-03-04T03:32:07.530Z,92049.88
2018-03-04T03:34:35.078Z,92051.44
2018-03-04T03:37:02.629Z,92056.92
2018-03-04T03:39:30.193Z,92056.68
2018-03-04T03:41:57.732Z,92056.48
2018-03-04T03:44:25.274Z,92065.12
2018-03-04T03:46:52.889Z,92064.69
2018-03-04T03:49:20.425Z,92063.47
2018-03-04T03:51:47.978Z,92067.66
2018-03-04T03:54:15.645Z,92066.45
2018-03-04T03:56:43.185Z,92064.02
2018-03-04T03:59:10.735Z,92063.97
2018-03-04T04:01:38.449Z,92076.94
2018-03-04T04:04:05.997Z,92071.69
2018-03-04T04:06:33.563Z,92087.74
2018-03-04T04:09:01.106Z,92093.61
2018-03-04T04:11:28.661Z,92090.70
2018-03-04T04:13:56.226Z,92094.85
2018-03-04T04:16:23.779Z,92097.74
2018-03-04T04:18:51.330Z,92101.86
2018-03-04T04:21:19.101Z,92098.27
2018-03-04T04:23:46.654Z,92106.95
2018-03-04T04:26:14.198Z,92102.82
2018-03-04T04:28:41.879Z,92108.66
2018-03-04T04:31:09.440Z,92106.95
2018-03-04T04:33:36.984Z,92107.36
2018-03-04T04:36:04.578Z,92103.62
2018-03-04T04:38:32.131Z,92109.83
2018-03-04T04:40:59.670Z,92113.64
2018-03-04T04:43:27.342Z,92115.28
2018-03-04T04:45:54.889Z,92117.20
2018-03-04T04:48:22.429Z,92127.13
2018-03-04T04:50:50.118Z,92135.47
2018-03-04T04:53:17.689Z,92137.16
2018-03-04T04:55:45.237Z,92141.72
2018-03-04T04:58:12.809Z,92145.83
2018-03-04T05:00:40.363Z,92148.66
2018-03-04T05:03:07.898Z,92149.13
2018-03-04T05:05:35.626Z,92152.45
2018-03-04T05:08:03.166Z,92150.78
2018-03-04T05:10:30.711Z,92158.23
2018-03-04T05:12:58.386Z,92165.63
2018-03-04T05:15:25.932Z,92159.10
2018-03-04T05:17:53.501Z,92165.22
2018-03-04T05:20:21.060Z,92168.50
2018-03-04T05:22:48.594Z,92173.89
2018-03-04T05:25:16.139Z,92171.31
2018-03-04T05:27:43.828Z,92176.70
2018-03-04T05:30:11.370Z,92180.36
2018-03-04T05:32:38.912Z,92185.72
2018-03-04T05:35:06.646Z,92184.77
2018-03-04T05:37:34.191Z,92188.86
2018-03-04T05:40:01.741Z,92195.75
2018-03-04T05:42:29.475Z,92194.73
2018-03-04T05:44:57.019Z,92199.14
2018-03-04T05:47:24.565Z,92202.36
2018-03-04T05:49:52.129Z,92205.50
2018-03-04T05:52:19.671Z,92209.98
2018-03-04T05:54:47.207Z,92209.39
2018-03-04T05:57:15.077Z,92218.39
2018-03-04T05:59:42.637Z,92224.85
2018-03-04T06:02:10.191Z,92227.20
2018-03-04T06:04:38.074Z,92234.87
2018-03-04T06:07:06.505Z,92227.57
2018-03-04T06:09:34.048Z,92240.14
2018-03-04T06:12:01.700Z,92246.19
2018-03-04T06:14:29.257Z,92249.31
2018-03-04T06:16:56.824Z,92255.27
2018-03-04T06:19:24.418Z,92253.54
2018-03-04T06:21:51.983Z,92257.00
2018-03-04T06:24:19.519Z,92261.36
2018-03-04T06:26:47.203Z,92264.59
2018-03-04T06:29:14.742Z,92264.79
2018-03-04T06:31:42.284Z,92268.81
2018-03-04T06:34:10.026Z,92274.03
2018-03-04T06:36:37.571Z,92277.56
2018-03-04T06:39:05.167Z,92284.05
2018-03-04T06:41:32.894Z,92292.23
2018-03-04T06:44:00.463Z,92292.19
2018-03-04T06:46:28.011Z,92297.14
2018-03-04T06:48:55.780Z,92301.27
2018-03-04T06:51:23.328Z,92306.84
2018-03-04T06:53:50.870Z,92310.25
2018-03-04T06:56:18.454Z,92316.14
2018-03-04T06:58:46.001Z,92316.61
2018-03-04T07:01:13.549Z,92316.98
2018-03-04T07:03:41.283Z,92315.56
2018-03-04T07:06:08.823Z,92323.47
2018-03-04T07:08:36.370Z,92325.44
2018-03-04T07:11:03.949Z,92329.81
2018-03-04T07:13:31.494Z,92334.50
2018-03-04T07:15:59.040Z,92345.29
2018-03-04T07:18:26.762Z,92343.97
2018-03-04T07:20:54.305Z,92356.44
2018-03-04T07:23:21.849Z,92359.72
2018-03-04T07:25:49.423Z,92361.56
2018-03-04T07:28:16.970Z,92365.25
2018-03-04T07:30:44.507Z,92368.96
2018-03-04T07:33:12.239Z,92369.86
2018-03-04T07:35:39.775Z,92377.16
2018-03-04T07:38:07.332Z,92386.26
2018-03-04T07:40:34.933Z,92389.58
2018-03-04T07:43:02.495Z,92385.92
2018-03-04T07:45:30.044Z,92380.62
2018-03-04T07:47:57.740Z,92392.22
2018-03-04T07:50:25.310Z,92392.58
2018-03-04T07:52:52.842Z,92395.53
2018-03-04T07:55:20.449Z,92392.70
2018-03-04T07:57:47.986Z,92395.92
2018-03-04T08:00:15.534Z,92397.03
2018-03-04T08:02:43.105Z,92407.53
2018-03-04T08:05:10.656Z,92407.00
2018-03-04T08:07:38.219Z,92410.20
2018-03-04T08:10:05.766Z,92424.26
2018-03-04T08:12:33.351Z,92430.86
2018-03-04T08:15:00.917Z,92427.36
2018-03-04T08:17:28.466Z,92431.42
2018-03-04T08:19:56.012Z,92438.88
2018-03-04T08:22:23.606Z,92444.46
2018-03-04T08:25:02.678Z,92439.77
2018-03-04T08:27:41.989Z,92436.59
2018-03-04T08:30:09.528Z,92443.45
2018-03-04T08:32:37.079Z,92451.95
2018-03-04T08:35:04.914Z,92454.70
2018-03-04T08:37:32.459Z,92462.05
2018-03-04T08:40:00.027Z,92461.60
2018-03-04T08:42:27.682Z,92463.69
2018-03-04T08:44:55.225Z,92470.19
2018-03-04T08:47:22.770Z,92472.64
2018-03-04T08:49:50.362Z,92480.50
2018-03-04T08:52:17.912Z,92487.05
2018-03-04T08:54:45.446Z,92495.88
2018-03-04T08:57:13.037Z,92498.29
2018-03-04T08:59:40.595Z,92493.77
2018-03-04T09:02:08.139Z,92499.97
2018-03-04T09:04:36.062Z,92498.95
2018-03-04T09:07:03.623Z,92498.58
2018-03-04T09:09:31.217Z,92500.20
2018-03-04T09:11:58.773Z,92505.41
2018-03-04T09:14:26.312Z,92508.66
2018-03-04T09:16:53.873Z,92508.34
2018-03-04T09:19:21.461Z,92519.41
2018-03-04T09:21:49.014Z,92523.12
2018-03-04T09:24:16.562Z,92519.19
2018-03-04T09:26:44.289Z,92524.69
2018-03-04T09:29:11.821Z,92530.00
2018-03-04T09:31:39.358Z,92536.53
2018-03-04T09:34:06.950Z,92546.00
2018-03-04T09:36:34.517Z,92544.44
2018-03-04T09:39:02.066Z,92556.45
2018-03-04T09:41:29.794Z,92558.58
2018-03-04T09:43:57.364Z,92560.45
2018-03-04T09:46:24.914Z,92570.95
2018-03-04T09:48:52.486Z,92565.94
2018-03-04T09:51:20.070Z,92568.88
2018-03-04T09:53:47.618Z,92574.15
2018-03-04T09:56:16.117Z,92574.09
2018-03-04T09:58:43.687Z,92582.63
2018-03-04T10:01:11.228Z,92580.78
2018-03-04T10:03:38.824Z,92579.56
2018-03-04T10:06:06.384Z,92583.97
2018-03-04T10:08:33.948Z,92584.98
2018-03-04T10:11:01.540Z,92581.53
2018-03-04T10:13:29.127Z,92592.64
2018-03-04T10:15:56.671Z,92590.56
2018-03-04T10:18:24.410Z,92590.73
2018-03-04T10:20:51.957Z,92594.90
2018-03-04T10:23:19.549Z,92592.82
2018-03-04T10:25:47.151Z,92599.13
2018-03-04T10:28:14.716Z,92600.06
2018-03-04T10:30:42.259Z,92599.32
2018-03-04T10:33:10.006Z,92607.98
2018-03-04T10:35:37.565Z,92610.08
2018-03-04T10:38:05.102Z,92615.85
2018-03-04T10:40:32.839Z,92617.73
2018-03-04T10:43:00.380Z,92610.48
2018-03-04T10:45:27.918Z,92612.16
2018-03-04T10:47:55.499Z,92609.59
2018-03-04T10:50:23.054Z,92617.27
2018-03-04T10:52:50.620Z,92612.70
2018-03-04T10:55:18.356Z,92618.86
2018-03-04T10:57:45.885Z,92616.59
2018-03-04T11:00:13.457Z,92620.08
2018-03-04T11:02:41.838Z,92621.22
2018-03-04T11:05:09.411Z,92612.16
2018-03-04T11:07:37.011Z,92609.87
2018-03-04T11:10:04.573Z,92613.92
2018-03-04T11:12:32.110Z,92613.52
2018-03-04T11:14:59.702Z,92617.74
2018-03-04T11:17:27.254Z,92623.36
2018-03-04T11:19:54.801Z,92619.84
2018-03-04T11:22:22.377Z,92628.27
2018-03-04T11:24:49.921Z,92628.31
2018-03-04T11:27:17.459Z,92629.13
2018-03-04T11:29:45.046Z,92638.69
2018-03-04T11:32:12.594Z,92638.55
2018-03-04T11:34:40.130Z,92643.14
2018-03-04T11:37:07.710Z,92635.46
2018-03-04T11:39:35.262Z,92637.13
2018-03-04T11:42:02.812Z,92635.86
2018-03-04T11:44:30.538Z,92644.08
2018-03-04T11:46:58.073Z,92645.55
2018-03-04T11:49:25.618Z,92647.03
2018-03-04T11:51:53.202Z,92651.41
2018-03-04T11:54:20.742Z,92653.72
2018-03-04T11:56:48.287Z,92654.09
2018-03-04T11:59:15.860Z,92651.41
2018-03-04T12:01:43.424Z,92648.25
2018-03-04T12:04:10.986Z,92657.44
2018-03-04T12:06:38.725Z,92650.86
2018-03-04T12:09:06.292Z,92660.08
2018-03-04T12:11:33.854Z,92662.20
2018-03-04T12:14:01.783Z,92668.36
2018-03-04T12:16:29.340Z,92668.20
2018-03-04T12:18:56.916Z,92666.75
2018-03-04T12:21:24.503Z,92674.56
2018-03-04T12:23:52.044Z,92673.16
2018-03-04T12:26:19.594Z,92670.29
2018-03-04T12:28:47.177Z,92679.05
2018-03-04T12:31:14.732Z,92672.58
2018-03-04T12:33:42.289Z,92677.15
2018-03-04T12:36:09.859Z,92670.84
2018-03-04T12:38:37.409Z,92661.83
2018-03-04T12:41:04.946Z,92663.82
2018-03-04T12:43:32.824Z,92658.06
2018-03-04T12:46:00.363Z,92663.91
2018-03-04T12:48:27.902Z,92666.09
2018-03-04T12:50:55.479Z,92669.95
2018-03-04T12:53:23.040Z,92665.16
2018-03-04T12:55:50.574Z,92658.89
2018-03-04T12:58:18.150Z,92661.14
2018-03-04T13:00:46.439Z,92659.68
2018-03-04T13:03:13.973Z,92651.16
2018-03-04T13:05:41.569Z,92652.51
2018-03-04T13:08:09.156Z,92650.95
2018-03-04T13:10:36.712Z,92648.91
2018-03-04T13:13:04.446Z,92652.73
2018-03-04T13:15:31.998Z,92650.68
2018-03-04T13:17:59.556Z,92644.80
2018-03-04T13:20:27.172Z,92653.87
2018-03-04T13:22:54.732Z,92656.42
2018-03-04T13:25:22.318Z,92667.67
2018-03-04T13:27:49.930Z,92677.27
2018-03-04T13:30:17.485Z,92675.17
2018-03-04T13:32:45.056Z,92682.84
2018-03-04T13:35:12.671Z,92698.20
2018-03-04T13:37:40.214Z,92705.44
2018-03-04T13:40:07.774Z,92716.34
2018-03-04T13:42:35.640Z,92710.12
2018-03-04T13:45:03.193Z,92710.38
2018-03-04T13:47:30.774Z,92714.27
2018-03-04T13:49:58.697Z,92718.44
2018-03-04T13:52:26.268Z,92717.12
2018-03-04T13:54:53.808Z,92711.18
2018-03-04T13:57:21.410Z,92711.44
2018-03-04T13:59:48.983Z,92713.45
2018-03-04T14:02:16.571Z,92713.53
2018-03-04T14:04:44.274Z,92713.95
2018-03-04T14:07:11.838Z,92714.43
2018-03-04T14:09:39.382Z,92717.77
2018-03-04T14:12:07.075Z,92727.39
2018-03-04T14:14:34.627Z,92729.52
2018-03-04T14:17:02.186Z,92729.12
2018-03-04T14:19:29.932Z,92733.73
2018-03-04T14:21:57.491Z,92730.39
2018-03-04T14:24:25.117Z,92734.86
2018-03-04T14:26:52.878Z,92728.61
2018-03-04T14:29:20.432Z,92731.66
2018-03-04T14:31:48.006Z,92736.87
2018-03-04T14:34:15.590Z,92737.30
2018-03-04T14:36:43.152Z,92727.13
2018-03-04T14:39:10.721Z,92724.84
2018-03-04T14:41:38.598Z,92728.48
2018-03-04T14:44:07.335Z,92729.02
2018-03-04T14:46:34.883Z,92728.19
2018-03-04T14:49:02.560Z,92739.27
2018-03-04T14:51:30.126Z,92743.23
2018-03-04T14:53:57.701Z,92736.02
2018-03-04T14:56:25.417Z,92734.37
2018-03-04T14:58:52.965Z,92735.72
2018-03-04T15:01:20.529Z,92733.14
2018-03-04T15:03:48.260Z,92734.05
2018-03-04T15:06:15.814Z,92735.30
2018-03-04T15:08:43.368Z,92725.42
2018-03-04T15:11:11.014Z,92735.03
2018-03-04T15:13:38.570Z,92736.74
2018-03-04T15:16:06.168Z,92734.36
2018-03-04T15:18:33.764Z,92740.27
2018-03-04T15:21:01.314Z,92741.28
2018-03-04T15:23:28.906Z,92744.19
2018-03-04T15:25:56.537Z,92754.68
2018-03-04T15:28:24.110Z,92759.09
2018-03-04T15:30:51.671Z,92757.75
2018-03-04T15:33:20.017Z,92749.70
2018-03-04T15:35:47.573Z,92754.93
2018-03-04T15:38:15.160Z,92759.02
2018-03-04T15:40:42.901Z,92768.66
2018-03-04T15:43:10.462Z,92776.97
2018-03-04T15:45:38.013Z,92780.19
2018-03-04T15:48:05.591Z,92783.78
2018-03-04T15:50:33.148Z,92790.39
2018-03-04T15:53:00.746Z,92792.20
2018-03-04T15:55:28.337Z,92795.45
2018-03-04T15:57:55.886Z,92790.87
2018-03-04T16:00:23.470Z,92802.06
2018-03-04T16:02:51.159Z,92805.45
2018-03-04T16:05:18.726Z,92804.57
2018-03-04T16:07:46.292Z,92807.77
2018-03-04T16:10:13.869Z,92819.18
2018-03-04T16:12:41.440Z,92816.83
2018-03-04T16:15:09.047Z,92819.33
2018-03-04T16:17:36.654Z,92824.14
2018-03-04T16:20:04.267Z,92830.84
2018-03-04T16:22:31.908Z,92835.20
2018-03-04T16:24:59.493Z,92830.77
2018-03-04T16:27:27.111Z,92842.11
2018-03-04T16:29:54.867Z,92846.33
2018-03-04T16:32:22.439Z,92847.37
2018-03-04T16:34:50.015Z,92854.13
2018-03-04T16:37:17.722Z,92845.86
2018-03-04T16:39:45.366Z,92842.25
2018-03-04T16:42:12.938Z,92847.29
2018-03-04T16:44:40.574Z,92852.29
2018-03-04T16:47:08.143Z,92854.89
2018-03-04T16:49:35.689Z,92863.69
2018-03-04T16:52:03.866Z,92868.36
2018-03-04T16:54:31.443Z,92869.22
2018-03-04T16:56:59.022Z,92874.66
2018-03-04T16:59:26.623Z,92881.66
2018-03-04T17:01:54.231Z,92881.79
2018-03-04T17:04:21.821Z,92878.95
2018-03-04T17:06:49.527Z,92882.66
2018-03-04T17:09:17.093Z,92883.02
2018-03-04T17:11:44.664Z,92892.95
2018-03-04T17:14:12.437Z,92896.76
2018-03-04T17:16:40.001Z,92894.23
2018-03-04T17:19:07.615Z,92897.87
2018-03-04T17:21:35.274Z,92900.36
2018-03-04T17:24:02.872Z,92895.94
2018-03-04T17:26:30.457Z,92896.78
2018-03-04T17:28:58.415Z,92892.68
2018-03-04T17:31:26.013Z,92907.66
2018-03-04T17:33:53.591Z,92920.57
2018-03-04T17:36:21.180Z,92913.95
2018-03-04T17:38:48.787Z,92914.45
2018-03-04T17:41:16.357Z,92915.69
2018-03-04T17:43:43.959Z,92921.06
2018-03-04T17:46:11.622Z,92928.16
2018-03-04T17:48:39.262Z,92927.83
2018-03-04T17:51:06.889Z,92932.33
2018-03-04T17:53:34.459Z,92931.61
2018-03-04T17:56:02.067Z,92932.52
2018-03-04T17:58:29.681Z,92930.03
2018-03-04T18:00:57.258Z,92924.75
2018-03-04T18:03:24.841Z,92924.88
2018-03-04T18:05:52.772Z,92929.09
2018-03-04T18:08:20.321Z,92930.45
2018-03-04T18:10:47.899Z,92930.58
2018-03-04T18:13:15.533Z,92925.67
2018-03-04T18:15:43.080Z,92926.21
2018-03-04T18:18:10.665Z,92931.64
2018-03-04T18:20:38.408Z,92934.20
2018-03-04T18:23:05.978Z,92932.25
2018-03-04T18:25:33.554Z,92929.01
2018-03-04T18:28:01.340Z,92931.14
2018-03-04T18:30:28.877Z,92934.16
2018-03-04T18:32:56.504Z,92933.08
2018-03-04T18:35:24.135Z,92938.58
2018-03-04T18:37:51.745Z,92934.09
2018-03-04T18:40:19.382Z,92935.34
2018-03-04T18:42:47.093Z,92945.38
2018-03-04T18:45:14.694Z,92947.03
2018-03-04T18:47:42.254Z,92953.30
2018-03-04T18:50:10.020Z,92953.36
2018-03-04T18:52:37.628Z,92959.22
2018-03-04T18:55:05.262Z,92963.83
2018-03-04T18:57:33.060Z,92965.48
2018-03-04T19:00:00.641Z,92961.75
2018-03-04T19:02:28.278Z,92959.31
2018-03-04T19:04:55.910Z,92956.02
2018-03-04T19:07:23.488Z,92954.46
2018-03-04T19:09:51.077Z,92947.55
2018-03-04T19:12:18.820Z,92943.17
2018-03-04T19:14:46.421Z,92950.12
2018-03-04T19:17:13.987Z,92947.53
2018-03-04T19:19:41.704Z,92949.45
2018-03-04T19:22:09.561Z,92949.35
2018-03-04T19:24:37.166Z,92948.78
2018-03-04T19:27:04.896Z,92953.94
2018-03-04T19:29:32.512Z,92952.49
2018-03-04T19:32:00.133Z,92956.81
2018-03-04T19:34:27.772Z,92952.45
2018-03-04T19:36:55.417Z,92951.86
2018-03-04T19:39:23.047Z,92946.35
2018-03-04T19:41:50.677Z,92948.69
2018-03-04T19:44:18.256Z,92950.11
2018-03-04T19:46:45.808Z,92954.86
2018-03-04T19:49:13.429Z,92951.32
2018-03-04T19:51:41.012Z,92950.70
2018-03-04T19:54:08.614Z,92959.13
2018-03-04T19:56:36.460Z,92957.63
2018-03-04T19:59:03.972Z,92952.42
2018-03-04T20:01:31.621Z,92955.84
2018-03-04T20:03:59.284Z,92963.83
2018-03-04T20:06:26.858Z,92968.47
2018-03-04T20:08:54.455Z,92963.63
2018-03-04T20:11:22.046Z,92966.22
2018-03-04T20:13:49.653Z,92969.25
2018-03-04T20:16:17.446Z,92977.59
2018-03-04T20:18:45.032Z,92969.42
2018-03-04T20:21:12.605Z,92982.27
2018-03-04T20:23:40.216Z,92981.50
2018-03-04T20:26:07.789Z,92973.77
2018-03-04T20:28:35.347Z,92977.52
2018-03-04T20:31:03.048Z,92982.97
2018-03-04T20:33:30.603Z,92983.00
2018-03-04T20:35:58.161Z,92977.33
2018-03-04T20:38:25.928Z,92980.65
2018-03-04T20:40:53.490Z,92985.66
2018-03-04T20:43:21.116Z,92990.66
2018-03-04T20:45:48.709Z,92993.16
2018-03-04T20:48:16.262Z,92998.52
2018-03-04T20:50:43.838Z,93001.75
2018-03-04T20:53:11.606Z,92997.98
2018-03-04T20:55:39.166Z,92994.21
2018-03-04T20:58:06.732Z,93001.57
2018-03-04T21:00:34.342Z,93000.65
2018-03-04T21:03:01.900Z,92993.17
2018-03-04T21:05:29.477Z,92992.28
2018-03-04T21:07:57.217Z,92998.78
2018-03-04T21:10:24.798Z,92989.17
2018-03-04T21:12:52.341Z,92993.98
2018-03-04T21:15:19.947Z,92994.29
2018-03-04T21:17:47.507Z,92995.00
2018-03-04T21:20:15.062Z,92995.24
2018-03-04T21:22:42.664Z,92993.75
2018-03-04T21:25:10.232Z,92989.89
2018-03-04T21:27:37.829Z,92988.57
2018-03-04T21:30:05.548Z,92991.27
2018-03-04T21:32:33.120Z,92984.20
2018-03-04T21:35:00.675Z,92975.02
2018-03-04T21:37:28.258Z,92988.92
2018-03-04T21:39:55.820Z,92976.66
2018-03-04T21:42:23.392Z,92983.05
2018-03-04T21:44:51.087Z,92980.53
2018-03-04T21:47:18.665Z,92987.05
2018-03-04T21:49:46.235Z,92987.38
2018-03-04T21:52:13.877Z,92991.79
2018-03-04T21:54:41.435Z,92986.38
2018-03-04T21:57:09.006Z,92984.48
2018-03-04T21:59:36.771Z,92985.81
2018-03-04T22:02:04.348Z,92989.86
2018-03-04T22:04:31.918Z,92996.88
2018-03-04T22:06:59.514Z,92993.58
2018-03-04T22:09:27.079Z,92997.33
2018-03-04T22:11:54.649Z,92994.90
2018-03-04T22:14:22.382Z,92994.48
2018-03-04T22:16:49.932Z,92992.42
2018-03-04T22:19:17.496Z,92989.98
2018-03-04T22:21:45.109Z,92991.27
2018-03-04T22:24:12.653Z,92992.52
2018-03-04T22:26:40.206Z,92993.84
2018-03-04T22:29:08.095Z,92985.25
2018-03-04T22:31:35.663Z,92994.38
2018-03-04T22:34:03.230Z,92991.11
2018-03-04T22:36:30.805Z,92995.65
2018-03-04T22:38:58.346Z,92992.68
2018-03-04T22:41:25.897Z,92993.05
2018-03-04T22:43:53.481Z,92991.31
2018-03-04T22:46:21.031Z,92985.48
2018-03-04T22:48:48.596Z,92986.68
2018-03-04T22:51:16.204Z,92989.53
2018-03-04T22:53:43.768Z,92983.70
2018-03-04T22:56:11.332Z,92982.83
2018-03-04T22:58:39.030Z,92988.58
2018-03-04T23:01:06.590Z,92987.25
2018-03-04T23:03:35.092Z,92984.31
2018-03-04T23:06:02.689Z,92983.72
2018-03-04T23:08:30.239Z,92979.45
2018-03-04T23:10:57.791Z,92979.41
2018-03-04T23:13:25.682Z,92976.42
2018-03-04T23:15:53.218Z,92977.34
2018-03-04T23:18:20.798Z,92975.83
2018-03-04T23:20:48.490Z,92981.20
2018-03-04T23:23:16.058Z,92973.77
2018-03-04T23:25:43.616Z,92977.42
2018-03-04T23:28:11.364Z,92975.38
2018-03-04T23:30:38.915Z,92975.87
2018-03-04T23:33:06.460Z,92974.17
2018-03-04T23:35:34.220Z,92975.83
2018-03-04T23:38:01.784Z,92976.61
2018-03-04T23:40:29.362Z,92985.28
2018-03-04T23:42:56.953Z,92988.05
2018-03-04T23:45:24.527Z,92985.19
2018-03-04T23:47:52.069Z,92987.53
2018-03-04T23:50:19.801Z,92992.58
2018-03-04T23:52:47.345Z,92985.15
2018-03-04T23:55:14.904Z,92987.26
2018-03-04T23:57:42.494Z,92995.02
